createdAt,value
2022-10-08T00:33:24.666Z,10.00
2022-10-08T00:36:14.693Z,10.73
2022-10-08T00:39:05.123Z,10.23
2022-10-08T00:41:56.179Z,10.35
2022-10-08T00:44:53.717Z,10.35
2022-10-08T00:47:45.497Z,10.70
2022-10-08T00:50:35.994Z,11.40
2022-10-08T00:53:25.437Z,9.82
2022-10-08T00:56:13.371Z,10.63
2022-10-08T00:59:02.316Z,11.18
2022-10-08T01:01:50.355Z,10.68
2022-10-08T01:04:40.306Z,9.88
2022-10-08T01:07:33.181Z,11.82
2022-10-08T01:10:31.176Z,10.85
2022-10-08T01:13:32.543Z,10.98
2022-10-08T01:16:27.366Z,11.07
2022-10-08T01:19:34.569Z,12.32
2022-10-08T01:22:36.062Z,12.27
2022-10-08T01:25:34.403Z,12.10
2022-10-08T01:28:28.000Z,11.70
2022-10-08T01:31:19.151Z,12.20
2022-10-08T01:34:10.925Z,11.82
2022-10-08T01:36:59.994Z,12.85
2022-10-08T01:39:51.049Z,13.48
2022-10-08T01:42:42.038Z,13.65
2022-10-08T01:45:35.616Z,12.30
2022-10-08T01:48:27.531Z,12.40
2022-10-08T01:51:18.616Z,12.13
2022-10-08T01:54:11.163Z,12.35
2022-10-08T01:57:01.257Z,11.35
2022-10-08T01:59:54.734Z,11.80
2022-10-08T02:02:44.478Z,11.43
2022-10-08T02:05:36.399Z,12.77
2022-10-08T02:08:25.961Z,13.38
2022-10-08T02:11:13.581Z,15.30
2022-10-08T02:14:01.314Z,15.32
2022-10-08T02:16:58.235Z,14.95
2022-10-08T02:19:54.484Z,12.45
2022-10-08T02:22:51.509Z,14.35
2022-10-08T02:25:47.464Z,13.40
2022-10-08T02:28:45.718Z,13.23
2022-10-08T02:31:40.893Z,11.10
2022-10-08T02:34:32.425Z,12.48
2022-10-08T02:37:26.055Z,12.43
2022-10-08T02:40:17.201Z,12.80
2022-10-08T02:43:10.423Z,13.20
2022-10-08T02:46:01.667Z,13.13
2022-10-08T02:48:54.936Z,13.15
2022-10-08T02:51:49.363Z,12.57
2022-10-08T02:54:43.260Z,14.13
2022-10-08T02:57:34.852Z,13.15
2022-10-08T03:00:23.370Z,13.00
2022-10-08T03:03:14.532Z,12.45
2022-10-08T03:06:04.151Z,12.35
2022-10-08T03:08:55.262Z,13.57
2022-10-08T03:11:45.022Z,14.30
2022-10-08T03:14:37.800Z,12.18
2022-10-08T03:17:30.584Z,13.77
2022-10-08T03:20:18.669Z,13.63
2022-10-08T03:23:06.467Z,13.10
2022-10-08T03:25:55.074Z,12.80
2022-10-08T03:28:44.145Z,12.77
2022-10-08T06:17:09.614Z,15.07
2022-10-08T06:19:57.508Z,15.57
2022-10-08T06:22:45.573Z,15.77
2022-10-08T06:42:24.842Z,15.95
2022-10-08T06:45:12.586Z,17.38
2022-10-08T06:48:00.211Z,18.23
2022-10-08T06:50:49.361Z,20.63
2022-10-08T06:53:37.179Z,21.08
2022-10-08T06:56:26.174Z,23.67
2022-10-08T06:59:14.021Z,20.60
2022-10-08T07:02:01.786Z,19.98
2022-10-08T07:04:49.619Z,18.73
2022-10-08T07:07:39.055Z,16.75
2022-10-08T07:10:32.369Z,17.13
2022-10-08T07:13:21.182Z,14.82
2022-10-08T07:16:12.516Z,15.13
2022-10-08T07:19:02.591Z,14.57
2022-10-08T07:21:50.208Z,14.60
2022-10-08T07:24:39.446Z,14.77
2022-10-08T07:27:27.445Z,14.18
2022-10-08T07:30:15.109Z,13.27
2022-10-08T07:33:02.860Z,13.80
2022-10-08T07:35:50.779Z,13.85
2022-10-08T08:20:45.851Z,14.02
2022-10-08T08:23:34.414Z,13.70
2022-10-08T08:26:24.004Z,11.70
2022-10-08T08:29:13.732Z,12.18
2022-10-08T08:32:02.933Z,13.25
2022-10-08T08:34:50.982Z,12.13
2022-10-08T08:37:38.874Z,12.20
2022-10-08T08:40:29.528Z,11.27
2022-10-08T08:43:17.331Z,12.00
2022-10-08T08:46:06.109Z,11.75
2022-10-08T08:49:00.588Z,12.88
2022-10-08T08:51:48.899Z,11.30
2022-10-08T08:54:36.769Z,11.60
2022-10-08T08:57:37.807Z,11.60
2022-10-08T09:00:32.552Z,11.63
2022-10-08T09:03:23.295Z,13.13
2022-10-08T09:06:15.600Z,11.18
2022-10-08T09:09:13.330Z,12.32
2022-10-08T09:12:01.491Z,10.77
2022-10-08T09:14:53.119Z,12.00
2022-10-08T09:17:43.181Z,11.68
2022-10-08T09:20:31.760Z,11.43
2022-10-08T09:23:22.315Z,11.32
2022-10-08T09:26:18.477Z,11.50
2022-10-08T09:29:07.331Z,10.85
2022-10-08T09:31:55.272Z,11.52
2022-10-08T09:34:43.350Z,11.43
2022-10-08T09:37:30.917Z,11.50
2022-10-08T09:40:22.776Z,12.40
2022-10-08T09:43:17.925Z,11.95
2022-10-08T09:46:12.322Z,12.07
2022-10-08T09:49:28.135Z,12.88
2022-10-08T09:52:20.639Z,13.25
2022-10-08T09:55:12.106Z,12.25
2022-10-08T09:58:03.496Z,11.38
2022-10-08T10:01:02.231Z,12.30
2022-10-08T10:03:54.048Z,12.10
2022-10-08T10:06:46.750Z,13.38
2022-10-08T10:09:42.961Z,13.23
2022-10-08T10:12:34.263Z,13.45
2022-10-08T10:15:27.810Z,11.95
2022-10-08T10:18:19.691Z,11.88
2022-10-08T10:21:11.728Z,12.10
2022-10-08T10:24:12.860Z,11.43
2022-10-08T10:27:07.521Z,11.75
2022-10-08T10:30:03.472Z,9.73
2022-10-08T10:32:59.455Z,9.23
2022-10-08T10:35:51.622Z,9.57
2022-10-08T10:38:46.510Z,9.77
2022-10-08T10:41:43.258Z,9.15
2022-10-08T10:44:38.086Z,8.52
2022-10-08T10:47:31.982Z,9.20
2022-10-08T10:50:29.204Z,9.10
2022-10-08T10:53:29.267Z,9.50
2022-10-08T10:56:20.061Z,9.13
2022-10-08T10:59:21.583Z,8.95
2022-10-08T11:02:21.862Z,8.63
2022-10-08T11:05:17.677Z,9.43
2022-10-08T11:08:37.180Z,8.98
2022-10-08T11:11:33.221Z,9.25
2022-10-08T11:14:44.887Z,9.05
2022-10-08T11:18:03.752Z,9.40
2022-10-08T11:21:04.443Z,8.27
2022-10-08T11:24:16.328Z,9.32
2022-10-08T11:27:12.207Z,9.43
2022-10-08T11:30:06.200Z,8.63
2022-10-08T11:32:57.047Z,9.05
2022-10-08T11:35:51.377Z,8.95
2022-10-08T11:38:44.253Z,9.32
2022-10-08T11:41:46.647Z,10.30
2022-10-08T11:44:34.703Z,9.52
2022-10-08T11:47:51.943Z,11.40
2022-10-08T11:50:41.053Z,13.60
2022-10-08T11:53:28.718Z,16.13
2022-10-08T11:56:21.036Z,11.73
2022-10-08T11:59:32.336Z,11.43
2022-10-08T12:02:25.434Z,14.02
2022-10-08T12:05:33.291Z,11.55
2022-10-08T12:08:55.404Z,11.02
2022-10-08T12:11:55.641Z,10.25
2022-10-08T12:14:50.257Z,10.43
2022-10-08T12:17:53.981Z,10.63
2022-10-08T12:20:43.538Z,11.25
2022-10-08T12:23:40.655Z,11.20
2022-10-08T12:26:28.236Z,11.70
2022-10-08T12:29:29.022Z,11.77
2022-10-08T12:32:18.073Z,10.93
2022-10-08T12:35:05.855Z,10.90
2022-10-08T12:38:20.697Z,10.98
2022-10-08T12:41:20.658Z,11.90
2022-10-08T12:44:28.362Z,12.05
2022-10-08T12:47:30.483Z,12.70
2022-10-08T12:50:36.082Z,13.57
2022-10-08T12:53:24.157Z,14.05
2022-10-08T12:56:17.419Z,15.63
2022-10-08T12:59:05.821Z,16.25
2022-10-08T13:01:55.441Z,15.70
2022-10-08T13:04:48.495Z,16.73
2022-10-08T13:07:37.257Z,15.00
2022-10-08T13:10:27.624Z,14.65
2022-10-08T13:13:34.774Z,15.75
2022-10-08T13:16:24.830Z,17.38
2022-10-08T13:19:19.494Z,18.15
2022-10-08T13:22:23.924Z,17.42
2022-10-08T13:25:32.497Z,18.77
2022-10-08T13:28:48.495Z,17.65
2022-10-08T13:31:34.783Z,20.70
2022-10-08T13:34:23.959Z,17.98
2022-10-08T13:37:16.107Z,17.13
2022-10-08T13:40:06.858Z,16.50
2022-10-08T13:42:56.583Z,15.85
2022-10-08T13:45:44.517Z,15.13
2022-10-08T13:48:32.879Z,15.65
2022-10-08T13:51:20.575Z,15.77
2022-10-08T13:54:11.329Z,16.95
2022-10-08T13:56:59.428Z,17.05
2022-10-08T13:59:47.720Z,17.40
2022-10-08T14:02:35.946Z,17.63
2022-10-08T14:05:24.962Z,17.23
2022-10-08T14:08:17.938Z,19.15
2022-10-08T14:11:07.236Z,19.77
2022-10-08T14:13:55.070Z,19.40
2022-10-08T14:16:43.177Z,19.60
2022-10-08T14:19:30.864Z,25.25
2022-10-08T14:22:19.046Z,31.05
2022-10-08T14:25:09.480Z,29.30
2022-10-08T14:27:59.012Z,23.20
2022-10-08T14:30:46.887Z,20.80
2022-10-08T14:33:34.527Z,19.10
2022-10-08T14:36:25.449Z,18.60
2022-10-08T14:39:13.731Z,18.35
2022-10-08T14:42:01.440Z,18.25
2022-10-08T14:44:51.927Z,17.77
2022-10-08T14:47:40.004Z,19.83
2022-10-08T14:50:27.989Z,18.52
2022-10-08T14:53:16.193Z,18.17
2022-10-08T14:56:12.902Z,17.15
2022-10-08T14:59:00.901Z,18.85
2022-10-08T15:01:50.393Z,17.58
2022-10-08T15:04:38.644Z,18.13
2022-10-08T15:07:26.484Z,17.38
2022-10-08T15:10:14.314Z,18.67
2022-10-08T15:13:01.968Z,18.58
2022-10-08T15:15:50.103Z,18.48
2022-10-08T15:18:39.666Z,19.95
2022-10-08T15:21:27.648Z,18.67
2022-10-08T15:24:16.248Z,18.10
2022-10-08T15:27:04.286Z,19.35
2022-10-08T15:29:52.589Z,18.48
2022-10-08T15:32:40.355Z,19.45
2022-10-08T15:35:29.370Z,19.70
2022-10-08T15:38:17.327Z,19.58
2022-10-08T15:41:05.223Z,20.70
2022-10-08T15:43:53.134Z,17.75
2022-10-08T15:46:41.141Z,17.45
2022-10-08T15:49:31.825Z,16.15
2022-10-08T15:52:23.005Z,16.17
2022-10-08T15:55:11.223Z,15.35
2022-10-08T15:57:59.359Z,15.00
2022-10-08T16:00:47.154Z,13.32
2022-10-08T16:03:39.695Z,13.68
2022-10-08T16:06:33.501Z,12.30
2022-10-08T16:09:25.041Z,12.07
2022-10-08T16:12:13.332Z,11.07
2022-10-08T16:15:01.642Z,10.40
2022-10-08T16:17:49.584Z,9.15
2022-10-08T16:20:37.026Z,8.40
2022-10-08T16:23:24.817Z,8.63
2022-10-08T16:26:20.406Z,8.10
2022-10-08T16:29:09.799Z,8.88
2022-10-08T16:31:58.642Z,8.05
2022-10-08T16:34:53.278Z,7.35
2022-10-08T16:37:41.642Z,6.85
2022-10-08T16:40:29.547Z,6.50
2022-10-08T16:43:19.038Z,6.07
2022-10-08T16:46:13.451Z,5.78
2022-10-08T16:49:03.119Z,6.10
2022-10-08T17:08:43.635Z,6.40
2022-10-08T17:11:31.564Z,6.22
2022-10-08T17:14:20.177Z,6.47
2022-10-08T17:17:09.390Z,6.43
2022-10-08T17:19:57.286Z,5.82
2022-10-08T17:22:44.995Z,6.57
2022-10-08T17:25:33.321Z,6.03
2022-10-08T17:28:21.095Z,6.50
2022-10-08T17:31:10.388Z,5.47
2022-10-08T17:34:00.173Z,5.45
2022-10-08T17:36:48.640Z,5.70
2022-10-08T17:39:36.249Z,5.22
2022-10-08T17:42:24.166Z,5.82
2022-10-08T17:45:12.285Z,6.05
2022-10-08T17:48:00.674Z,5.95
2022-10-08T17:50:50.007Z,6.53
2022-10-08T17:53:38.078Z,6.15
2022-10-08T17:56:26.583Z,5.70
2022-10-08T18:10:27.365Z,5.78
2022-10-08T18:13:15.252Z,5.95
2022-10-08T18:16:07.538Z,5.60
2022-10-08T18:18:57.199Z,5.50
2022-10-08T18:21:45.224Z,6.88
2022-10-08T18:24:34.848Z,7.25
2022-10-08T18:27:22.797Z,7.07
2022-10-08T18:30:11.799Z,7.43
2022-10-08T18:32:59.692Z,7.30
2022-10-08T18:35:47.823Z,6.50
2022-10-08T18:38:36.162Z,5.60
2022-10-08T18:41:27.406Z,5.32
2022-10-08T18:44:17.762Z,4.82
2022-10-08T18:47:05.807Z,4.80
2022-10-08T18:49:53.975Z,4.57
2022-10-08T18:52:41.417Z,3.83
2022-10-08T18:55:29.074Z,4.07
2022-10-08T18:58:18.332Z,4.53
2022-10-08T19:01:07.236Z,3.90
2022-10-08T19:03:57.356Z,4.30
2022-10-08T19:06:46.905Z,4.15
2022-10-08T19:09:34.961Z,4.25
2022-10-08T19:12:23.005Z,4.03
2022-10-08T19:15:12.395Z,3.70
2022-10-08T19:17:59.942Z,3.70
2022-10-08T19:20:48.028Z,3.90
2022-10-08T19:23:36.044Z,4.60
2022-10-08T19:26:24.139Z,3.90
2022-10-08T19:29:16.518Z,3.35
2022-10-08T19:32:05.912Z,3.42
2022-10-08T19:34:53.402Z,3.63
2022-10-08T19:37:41.365Z,3.20
2022-10-08T19:40:29.645Z,3.67
2022-10-08T19:43:17.537Z,3.58
2022-10-08T19:46:06.263Z,3.42
2022-10-08T19:48:57.795Z,3.50
2022-10-08T19:51:45.876Z,3.55
2022-10-08T19:54:33.987Z,3.53
2022-10-08T19:57:21.683Z,3.88
2022-10-08T20:00:10.658Z,3.67
2022-10-08T20:02:58.259Z,3.85
2022-10-08T20:05:47.600Z,3.65
2022-10-08T20:08:35.450Z,3.50
2022-10-08T20:11:24.140Z,4.13
2022-10-08T20:14:12.581Z,4.15
2022-10-08T20:17:00.838Z,3.85
2022-10-08T20:19:48.844Z,4.28
2022-10-08T20:22:38.123Z,3.45
2022-10-08T20:25:26.238Z,3.67
2022-10-08T20:28:13.962Z,4.00
2022-10-08T20:31:09.535Z,3.90
2022-10-08T20:33:59.234Z,3.75
2022-10-08T20:36:47.643Z,3.88
2022-10-08T20:39:37.307Z,3.35
2022-10-08T20:42:27.074Z,4.47
2022-10-08T20:45:15.107Z,4.30
2022-10-08T20:48:02.641Z,3.50
2022-10-08T20:50:50.214Z,3.05
2022-10-08T20:53:38.091Z,4.22
2022-10-08T20:56:27.671Z,4.78
2022-10-08T20:59:17.008Z,4.07
2022-10-08T21:02:05.709Z,4.78
2022-10-08T21:04:53.702Z,4.10
2022-10-08T21:07:41.805Z,4.50
2022-10-08T21:10:29.483Z,4.40
2022-10-08T21:13:18.948Z,5.18
2022-10-08T21:16:09.066Z,4.72
2022-10-08T21:18:59.250Z,4.32
2022-10-08T21:21:47.010Z,4.55
2022-10-08T21:24:35.924Z,4.40
2022-10-08T21:27:23.882Z,3.95
2022-10-08T21:30:14.391Z,3.58
2022-10-08T21:33:02.173Z,4.10
2022-10-08T21:35:49.815Z,3.50
2022-10-08T21:38:37.901Z,4.15
2022-10-08T21:41:26.377Z,4.18
2022-10-08T21:44:14.733Z,3.92
2022-10-08T21:47:04.074Z,3.60
2022-10-08T21:49:51.864Z,3.75
2022-10-08T21:52:39.745Z,3.70
2022-10-08T23:19:29.753Z,4.30
2022-10-08T23:22:17.314Z,4.78
2022-10-08T23:25:05.980Z,4.30
2022-10-08T23:27:55.160Z,4.50
2022-10-08T23:30:43.712Z,4.15
2022-10-08T23:33:31.876Z,5.47
2022-10-08T23:36:21.706Z,5.53
2022-10-08T23:39:11.641Z,5.47
2022-10-08T23:41:59.521Z,5.60
2022-10-08T23:44:48.671Z,5.30
2022-10-08T23:47:36.592Z,5.15
2022-10-08T23:50:24.525Z,5.15
2022-10-08T23:53:12.082Z,4.82
2022-10-08T23:55:59.805Z,5.15
2022-10-08T23:58:48.152Z,4.68
